createdAt,value
2022-08-20T00:01:10.443Z,100687.69
2022-08-20T00:03:40.384Z,100678.16
2022-08-20T00:06:18.619Z,100678.97
2022-08-20T00:08:46.658Z,100674.13
2022-08-20T00:11:18.441Z,100674.94
2022-08-20T00:13:52.609Z,100673.34
2022-08-20T00:16:23.212Z,100667.75
2022-08-20T00:18:51.221Z,100668.56
2022-08-20T00:21:20.057Z,100666.19
2022-08-20T00:23:49.360Z,100665.81
2022-08-20T00:26:17.062Z,100662.25
2022-08-20T00:28:43.840Z,100652.69
2022-08-20T00:31:18.258Z,100652.34
2022-08-20T00:33:45.769Z,100650.31
2022-08-20T00:36:15.746Z,100651.06
2022-08-20T00:38:44.660Z,100648.69
2022-08-20T00:41:14.899Z,100650.25
2022-08-20T00:43:51.236Z,100650.19
2022-08-20T00:46:31.028Z,100638.63
2022-08-20T00:49:00.040Z,100638.22
2022-08-20T00:51:35.078Z,100649.31
2022-08-20T00:54:11.302Z,100647.72
2022-08-20T00:56:39.110Z,100645.31
2022-08-20T00:59:12.743Z,100632.56
2022-08-20T01:01:55.058Z,100634.13
2022-08-20T01:04:25.305Z,100626.97
2022-08-20T01:06:52.300Z,100622.16
2022-08-20T01:09:49.803Z,100615.81
2022-08-20T01:12:08.168Z,100605.06
2022-08-20T01:14:34.954Z,100603.44
2022-08-20T01:17:07.893Z,100591.13
2022-08-20T01:19:49.447Z,100607.84
2022-08-20T01:22:43.978Z,100597.50
2022-08-20T01:25:20.482Z,100608.66
2022-08-20T01:27:55.167Z,100599.84
2022-08-20T01:30:27.823Z,100599.06
2022-08-20T01:32:55.143Z,100600.66
2022-08-20T01:35:24.441Z,100600.28
2022-08-20T01:37:51.253Z,100608.69
2022-08-20T01:40:42.069Z,100611.53
2022-08-20T01:43:09.731Z,100604.78
2022-08-20T01:45:37.129Z,100604.06
2022-08-20T01:48:07.004Z,100604.91
2022-08-20T01:50:37.067Z,100599.34
2022-08-20T01:53:17.075Z,100597.78
2022-08-20T01:55:44.246Z,100586.22
2022-08-20T01:58:11.234Z,100592.25
2022-08-20T02:00:38.217Z,100593.03
2022-08-20T02:03:05.246Z,100589.06
2022-08-20T02:05:33.553Z,100596.63
2022-08-20T02:08:02.185Z,100594.66
2022-08-20T02:10:31.895Z,100593.06
2022-08-20T02:13:00.375Z,100595.88
2022-08-20T02:15:34.760Z,100591.47
2022-08-20T02:18:08.121Z,100580.28
2022-08-20T02:20:36.163Z,100588.66
2022-08-20T02:23:04.134Z,100584.69
2022-08-20T02:25:33.832Z,100586.31
2022-08-20T02:28:06.896Z,100576.72
2022-08-20T02:30:38.249Z,100565.19
2022-08-20T02:33:07.995Z,100575.56
2022-08-20T02:35:35.558Z,100575.91
2022-08-20T02:38:04.955Z,100570.78
2022-08-20T02:40:33.264Z,100568.00
2022-08-20T02:43:01.912Z,100570.78
2022-08-20T02:45:30.834Z,100556.81
2022-08-20T02:47:59.160Z,100569.97
2022-08-20T02:50:26.626Z,100561.19
2022-08-20T02:52:53.705Z,100557.63
2022-08-20T02:55:27.497Z,100546.03
2022-08-20T02:57:58.605Z,100556.78
2022-08-20T03:02:54.241Z,100552.72
2022-08-20T03:05:21.183Z,100553.88
2022-08-20T03:07:51.680Z,100554.66
2022-08-20T03:10:18.572Z,100547.50
2022-08-20T03:12:46.584Z,100541.09
2022-08-20T03:15:17.478Z,100544.28
2022-08-20T03:17:45.614Z,100534.31
2022-08-20T03:20:14.354Z,100533.53
2022-08-20T03:22:41.105Z,100526.72
2022-08-20T03:25:08.260Z,100523.91
2022-08-20T03:27:36.429Z,100525.88
2022-08-20T03:30:06.340Z,100522.69
2022-08-20T03:32:37.701Z,100525.47
2022-08-20T03:35:06.700Z,100525.47
2022-08-20T03:37:35.256Z,100522.69
2022-08-20T03:40:04.615Z,100522.69
2022-08-20T03:42:32.942Z,100525.06
2022-08-20T03:45:00.944Z,100528.28
2022-08-20T03:47:28.101Z,100529.09
2022-08-20T03:50:02.229Z,100525.47
2022-08-20T03:52:29.542Z,100525.88
2022-08-20T03:54:57.115Z,100516.28
2022-08-20T03:57:24.635Z,100519.47
2022-08-20T03:59:54.896Z,100525.84
2022-08-20T04:02:28.276Z,100509.91
2022-08-20T04:04:55.294Z,100507.50
2022-08-20T04:07:25.990Z,100514.69
2022-08-20T04:09:55.006Z,100509.09
2022-08-20T04:12:24.349Z,100504.25
2022-08-20T04:14:52.208Z,100497.88
2022-08-20T04:17:20.192Z,100505.84
2022-08-20T04:19:48.371Z,100503.41
2022-08-20T04:22:16.437Z,100505.00
2022-08-20T04:24:43.497Z,100509.78
2022-08-20T04:27:11.069Z,100515.72
2022-08-20T04:29:43.205Z,100500.13
2022-08-20T04:32:10.084Z,100500.88
2022-08-20T04:34:37.065Z,100508.84
2022-08-20T04:37:04.513Z,100507.22
2022-08-20T04:39:31.532Z,100511.19
2022-08-20T04:41:58.448Z,100513.97
2022-08-20T04:44:25.251Z,100521.56
2022-08-20T04:46:51.985Z,100531.13
2022-08-20T04:49:20.713Z,100528.72
2022-08-20T04:51:48.491Z,100529.91
2022-08-20T04:54:15.211Z,100529.91
2022-08-20T04:56:42.037Z,100533.06
2022-08-20T04:59:08.796Z,100529.91
2022-08-20T05:01:35.857Z,100532.28
2022-08-20T05:04:02.985Z,100529.84
2022-08-20T05:06:31.933Z,100546.59
2022-08-20T05:09:00.678Z,100527.81
2022-08-20T05:11:33.182Z,100533.78
2022-08-20T05:14:02.526Z,100531.00
2022-08-20T05:16:29.706Z,100542.91
2022-08-20T05:18:56.441Z,100538.53
2022-08-20T05:21:23.281Z,100541.31
2022-08-20T05:23:50.033Z,100542.09
2022-08-20T05:26:18.771Z,100534.53
2022-08-20T05:28:54.076Z,100541.75
2022-08-20T05:31:32.115Z,100548.91
2022-08-20T05:34:18.096Z,100545.34
2022-08-20T05:36:49.159Z,100553.31
2022-08-20T05:39:17.210Z,100549.34
2022-08-20T05:41:43.947Z,100550.13
2022-08-20T05:44:13.504Z,100554.13
2022-08-20T05:46:42.012Z,100545.00
2022-08-20T05:49:10.711Z,100547.81
2022-08-20T05:51:38.050Z,100557.41
2022-08-20T05:54:06.081Z,100552.25
2022-08-20T05:56:34.016Z,100551.88
2022-08-20T05:59:04.888Z,100546.28
2022-08-20T06:01:33.909Z,100543.09
2022-08-20T06:04:20.178Z,100547.13
2022-08-20T06:06:47.744Z,100543.56
2022-08-20T06:09:30.753Z,100557.59
2022-08-20T06:12:03.888Z,100558.44
2022-08-20T06:14:32.052Z,100556.88
2022-08-20T06:17:06.748Z,100554.84
2022-08-20T06:19:35.435Z,100552.06
2022-08-20T06:22:08.679Z,100551.69
2022-08-20T06:24:44.835Z,100563.28
2022-08-20T06:27:15.284Z,100559.72
2022-08-20T06:29:42.303Z,100561.75
2022-08-20T06:32:09.755Z,100552.97
2022-08-20T06:34:36.823Z,100549.81
2022-08-20T06:37:14.802Z,100547.03
2022-08-20T06:39:41.895Z,100548.66
2022-08-20T06:42:08.732Z,100549.88
2022-08-20T06:44:36.977Z,100548.31
2022-08-20T06:47:05.130Z,100535.56
2022-08-20T06:49:36.069Z,100542.75
2022-08-20T06:52:05.188Z,100553.94
2022-08-20T06:54:34.370Z,100546.38
2022-08-20T06:57:02.591Z,100543.59
2022-08-20T06:59:29.357Z,100541.19
2022-08-20T07:01:56.650Z,100549.56
2022-08-20T07:04:26.012Z,100538.81
2022-08-20T07:06:54.269Z,100534.03
2022-08-20T07:09:21.822Z,100540.00
2022-08-20T07:11:49.451Z,100535.22
2022-08-20T07:14:18.469Z,100545.19
2022-08-20T07:16:47.346Z,100543.59
2022-08-20T07:19:15.177Z,100551.97
2022-08-20T07:21:42.279Z,100540.44
2022-08-20T07:24:10.135Z,100545.66
2022-08-20T07:26:36.952Z,100542.09
2022-08-20T07:29:04.186Z,100542.13
2022-08-20T07:31:49.839Z,100536.59
2022-08-20T07:34:16.891Z,100536.22
2022-08-20T07:36:48.494Z,100539.88
2022-08-20T07:39:15.338Z,100537.50
2022-08-20T07:41:43.544Z,100540.25
2022-08-20T07:44:17.523Z,100541.41
2022-08-20T07:46:45.335Z,100533.81
2022-08-20T07:49:12.114Z,100534.97
2022-08-20T07:51:40.588Z,100548.13
2022-08-20T07:54:07.409Z,100541.34
2022-08-20T07:56:34.637Z,100566.06
2022-08-20T07:59:03.340Z,100542.91
2022-08-20T08:01:32.229Z,100539.31
2022-08-20T08:04:00.199Z,100549.72
2022-08-20T08:06:30.142Z,100543.03
2022-08-20T08:09:09.883Z,100553.97
2022-08-20T08:11:39.867Z,100550.56
2022-08-20T08:14:09.905Z,100548.72
2022-08-20T08:16:37.648Z,100554.84
2022-08-20T08:19:08.940Z,100558.56
2022-08-20T08:21:36.727Z,100553.00
2022-08-20T08:24:03.891Z,100558.63
2022-08-20T08:26:30.776Z,100538.19
2022-08-20T08:28:58.458Z,100548.59
2022-08-20T08:31:25.992Z,100555.72
2022-08-20T08:33:53.100Z,100552.47
2022-08-20T08:36:19.928Z,100540.03
2022-08-20T08:38:46.914Z,100555.50
2022-08-20T08:41:20.926Z,100551.13
2022-08-20T08:43:50.612Z,100556.72
2022-08-20T08:46:22.739Z,100550.34
2022-08-20T08:48:53.620Z,100565.81
2022-08-20T08:51:59.031Z,100555.66
2022-08-20T08:54:29.829Z,100562.94
2022-08-20T08:56:57.479Z,100567.78
2022-08-20T08:59:52.387Z,100559.38
2022-08-20T09:02:23.062Z,100554.19
2022-08-20T09:04:51.724Z,100558.72
2022-08-20T09:07:18.516Z,100547.63
2022-08-20T09:09:46.907Z,100539.66
2022-08-20T09:12:19.117Z,100543.19
2022-08-20T09:14:48.171Z,100549.09
2022-08-20T09:17:16.309Z,100539.34
2022-08-20T09:19:43.141Z,100530.06
2022-08-20T09:22:12.042Z,100536.13
2022-08-20T09:24:39.336Z,100552.16
2022-08-20T09:27:09.275Z,100541.88
2022-08-20T09:29:36.424Z,100541.69
2022-08-20T09:32:09.181Z,100542.91
2022-08-20T09:34:38.160Z,100542.28
2022-08-20T09:37:05.459Z,100531.53
2022-08-20T09:39:32.482Z,100549.72
2022-08-20T09:42:17.113Z,100535.63
2022-08-20T09:44:44.711Z,100542.41
2022-08-20T09:47:11.855Z,100538.66
2022-08-20T09:49:39.469Z,100527.53
2022-08-20T09:52:10.935Z,100533.16
2022-08-20T09:54:39.999Z,100518.84
2022-08-20T09:57:15.004Z,100527.56
2022-08-20T09:59:42.038Z,100515.72
2022-08-20T10:02:09.105Z,100527.59
2022-08-20T10:04:35.899Z,100516.13
2022-08-20T10:07:07.857Z,100523.09
2022-08-20T10:09:36.227Z,100525.38
2022-08-20T10:12:03.992Z,100530.19
2022-08-20T10:14:31.366Z,100530.06
2022-08-20T10:17:00.749Z,100528.38
2022-08-20T10:19:28.425Z,100515.22
2022-08-20T10:21:55.344Z,100529.03
2022-08-20T10:24:22.944Z,100536.16
2022-08-20T10:26:50.355Z,100524.16
2022-08-20T10:29:17.404Z,100524.13
2022-08-20T10:31:44.261Z,100531.38
2022-08-20T10:34:11.049Z,100523.91
2022-08-20T10:36:38.260Z,100523.38
2022-08-20T10:39:05.040Z,100534.03
2022-08-20T10:41:31.874Z,100509.31
2022-08-20T10:43:58.648Z,100528.38
2022-08-20T10:46:25.375Z,100521.69
2022-08-20T10:48:52.479Z,100515.84
2022-08-20T10:51:19.261Z,100504.53
2022-08-20T10:53:47.584Z,100497.19
2022-08-20T10:56:15.776Z,100493.09
2022-08-20T10:58:42.746Z,100502.19
2022-08-20T11:01:11.422Z,100523.38
2022-08-20T11:03:38.338Z,100519.41
2022-08-20T11:06:06.606Z,100503.09
2022-08-20T11:08:36.137Z,100507.63
2022-08-20T11:11:04.438Z,100505.00
2022-08-20T11:13:31.415Z,100508.53
2022-08-20T11:15:58.201Z,100498.44
2022-08-20T11:18:24.992Z,100518.66
2022-08-20T11:20:52.390Z,100515.78
2022-08-20T11:23:19.348Z,100501.03
2022-08-20T11:25:46.335Z,100502.63
2022-08-20T11:28:13.285Z,100499.53
2022-08-20T11:30:40.118Z,100504.44
2022-08-20T11:33:07.467Z,100500.94
2022-08-20T11:35:49.228Z,100496.31
2022-08-20T11:38:17.142Z,100496.41
2022-08-20T11:40:43.916Z,100492.16
2022-08-20T11:43:15.527Z,100492.84
2022-08-20T11:45:47.721Z,100491.31
2022-08-20T11:48:14.863Z,100482.13
2022-08-20T11:50:41.743Z,100482.22
2022-08-20T11:53:08.626Z,100474.00
2022-08-20T11:55:36.800Z,100490.25
2022-08-20T11:58:03.933Z,100483.03
2022-08-20T12:00:33.972Z,100478.78
2022-08-20T12:03:05.193Z,100479.00
2022-08-20T12:05:32.747Z,100469.94
2022-08-20T12:08:02.499Z,100475.13
2022-08-20T12:10:30.689Z,100476.44
2022-08-20T12:12:57.924Z,100463.19
2022-08-20T12:15:26.843Z,100476.78
2022-08-20T12:17:54.912Z,100468.94
2022-08-20T12:20:23.346Z,100477.53
2022-08-20T12:22:50.756Z,100466.25
2022-08-20T12:25:17.896Z,100473.28
2022-08-20T12:27:46.323Z,100458.31
2022-08-20T12:30:18.187Z,100462.03
2022-08-20T12:32:45.013Z,100464.69
2022-08-20T12:35:13.067Z,100460.25
2022-08-20T12:37:40.799Z,100475.16
2022-08-20T12:40:11.663Z,100468.44
2022-08-20T12:42:38.793Z,100462.66
2022-08-20T12:45:06.669Z,100453.88
2022-08-20T12:47:36.012Z,100446.41
2022-08-20T12:50:25.202Z,100443.19
2022-08-20T12:52:54.376Z,100450.13
2022-08-20T12:55:21.371Z,100447.66
2022-08-20T12:57:57.376Z,100466.34
2022-08-20T13:00:27.858Z,100455.97
2022-08-20T13:02:58.815Z,100451.81
2022-08-20T13:05:26.840Z,100444.41
2022-08-20T13:07:54.619Z,100456.25
2022-08-20T13:10:25.467Z,100440.13
2022-08-20T13:12:52.600Z,100454.03
2022-08-20T13:15:23.180Z,100458.69
2022-08-20T13:17:59.788Z,100455.16
2022-08-20T13:20:31.749Z,100463.88
2022-08-20T13:23:03.120Z,100441.81
2022-08-20T13:25:30.965Z,100450.94
2022-08-20T13:28:00.368Z,100453.16
2022-08-20T13:30:27.608Z,100444.25
2022-08-20T13:32:54.766Z,100452.22
2022-08-20T13:35:22.048Z,100454.91
2022-08-20T13:37:51.392Z,100448.84
2022-08-20T13:40:19.066Z,100438.28
2022-08-20T13:42:46.783Z,100444.19
2022-08-20T13:45:14.137Z,100441.53
2022-08-20T13:47:42.611Z,100450.88
2022-08-20T13:50:15.912Z,100439.41
2022-08-20T13:52:43.307Z,100443.31
2022-08-20T13:55:13.138Z,100450.72
2022-08-20T13:57:41.042Z,100452.81
2022-08-20T14:00:12.792Z,100444.78
2022-08-20T14:02:42.950Z,100439.41
2022-08-20T14:05:10.993Z,100436.56
2022-08-20T14:07:39.348Z,100426.50
2022-08-20T14:10:11.242Z,100435.72
2022-08-20T14:12:38.084Z,100444.00
2022-08-20T14:15:05.971Z,100439.50
2022-08-20T14:17:36.255Z,100431.00
2022-08-20T14:20:13.737Z,100430.84
2022-08-20T14:22:42.196Z,100424.69
2022-08-20T14:25:13.010Z,100440.81
2022-08-20T14:27:40.186Z,100436.03
2022-08-20T14:30:11.066Z,100429.09
2022-08-20T14:32:37.971Z,100430.22
2022-08-20T14:35:05.552Z,100423.59
2022-08-20T14:37:39.329Z,100428.97
2022-08-20T14:40:09.467Z,100424.69
2022-08-20T14:42:36.904Z,100410.88
2022-08-20T14:45:06.527Z,100415.38
2022-08-20T14:47:45.601Z,100429.13
2022-08-20T14:50:18.959Z,100424.38
2022-08-20T14:52:45.762Z,100429.00
2022-08-20T14:55:17.464Z,100429.88
2022-08-20T14:57:45.456Z,100437.13
2022-08-20T15:00:18.887Z,100418.34
2022-08-20T15:02:47.174Z,100424.13
2022-08-20T15:05:15.071Z,100430.66
2022-08-20T15:07:44.533Z,100441.97
2022-08-20T15:10:35.981Z,100432.91
2022-08-20T15:13:02.880Z,100428.63
2022-08-20T15:15:29.977Z,100420.91
2022-08-20T15:18:00.330Z,100427.81
2022-08-20T15:20:31.173Z,100425.34
2022-08-20T15:22:58.902Z,100427.59
2022-08-20T15:25:36.075Z,100429.53
2022-08-20T15:28:06.337Z,100439.75
2022-08-20T15:30:33.513Z,100442.69
2022-08-20T15:33:00.646Z,100449.00
2022-08-20T15:35:28.644Z,100449.28
2022-08-20T15:37:57.579Z,100458.28
2022-08-20T15:40:28.555Z,100444.38
2022-08-20T15:43:00.355Z,100441.53
2022-08-20T15:45:27.121Z,100449.97
2022-08-20T15:48:16.767Z,100450.25
2022-08-20T15:51:09.856Z,100462.38
2022-08-20T15:53:58.930Z,100464.25
2022-08-20T15:57:01.484Z,100457.00
2022-08-20T15:59:34.341Z,100456.34
2022-08-20T16:02:28.924Z,100451.69
2022-08-20T16:05:52.880Z,100455.91
2022-08-20T16:08:58.344Z,100450.72
2022-08-20T16:11:39.489Z,100448.28
2022-08-20T16:14:29.373Z,100454.22
2022-08-20T16:17:05.767Z,100445.06
2022-08-20T16:19:56.767Z,100459.00
2022-08-20T16:22:24.981Z,100447.25
2022-08-20T16:24:51.765Z,100464.44
2022-08-20T16:27:24.688Z,100469.84
2022-08-20T16:30:03.046Z,100469.22
2022-08-20T16:32:48.942Z,100463.75
2022-08-20T16:35:34.380Z,100479.53
2022-08-20T16:38:14.244Z,100478.59
2022-08-20T16:41:01.720Z,100477.13
2022-08-20T16:43:40.791Z,100476.44
2022-08-20T16:46:33.177Z,100483.41
2022-08-20T16:49:11.618Z,100485.56
2022-08-20T16:51:53.596Z,100487.38
2022-08-20T16:54:28.249Z,100487.94
2022-08-20T16:57:06.471Z,100486.75
2022-08-20T16:59:34.787Z,100504.13
2022-08-20T17:02:10.056Z,100505.63
2022-08-20T17:04:50.412Z,100501.44
2022-08-20T17:07:46.135Z,100506.00
2022-08-20T17:10:30.234Z,100511.66
2022-08-20T17:13:14.150Z,100524.53
2022-08-20T17:15:43.915Z,100509.44
2022-08-20T17:18:38.425Z,100498.94
2022-08-20T17:21:14.551Z,100520.63
2022-08-20T17:23:56.389Z,100510.88
2022-08-20T17:26:43.236Z,100517.38
2022-08-20T17:29:23.687Z,100525.22
2022-08-20T17:31:57.593Z,100520.88
2022-08-20T17:34:33.401Z,100533.00
2022-08-20T17:37:10.471Z,100538.94
2022-08-20T17:39:49.822Z,100540.34
2022-08-20T17:42:22.367Z,100548.97
2022-08-20T17:44:56.029Z,100557.13
2022-08-20T17:47:39.046Z,100551.66
2022-08-20T17:50:19.913Z,100559.47
2022-08-20T17:52:57.862Z,100564.41
2022-08-20T17:55:26.496Z,100559.66
2022-08-20T17:57:58.035Z,100555.72
2022-08-20T18:00:28.441Z,100560.56
2022-08-20T18:03:06.358Z,100544.56
2022-08-20T18:05:35.798Z,100541.38
2022-08-20T18:08:03.040Z,100547.00
2022-08-20T18:10:34.351Z,100538.56
2022-08-20T18:13:27.755Z,100545.34
2022-08-20T18:15:58.049Z,100546.56
2022-08-20T18:18:34.849Z,100540.19
2022-08-20T18:21:20.289Z,100541.41
2022-08-20T18:24:01.411Z,100545.41
2022-08-20T18:26:45.096Z,100560.19
2022-08-20T18:29:16.603Z,100561.41
2022-08-20T18:31:51.873Z,100557.81
2022-08-20T18:34:35.596Z,100563.41
2022-08-20T18:37:21.415Z,100557.41
2022-08-20T18:39:50.092Z,100556.19
2022-08-20T18:42:34.257Z,100561.44
2022-08-20T18:45:02.895Z,100562.22
2022-08-20T18:47:41.814Z,100557.41
2022-08-20T18:50:42.555Z,100564.22
2022-08-20T18:53:19.943Z,100563.00
2022-08-20T18:56:00.218Z,100562.63
2022-08-20T18:59:09.475Z,100568.63
2022-08-20T19:01:38.016Z,100576.63
2022-08-20T19:04:20.509Z,100573.41
2022-08-20T19:06:57.745Z,100568.97
2022-08-20T19:10:12.935Z,100570.97
2022-08-20T19:13:16.089Z,100569.78
2022-08-20T19:15:50.899Z,100568.53
2022-08-20T19:18:37.982Z,100564.13
2022-08-20T19:21:05.997Z,100568.50
2022-08-20T19:23:49.307Z,100571.28
2022-08-20T19:26:25.298Z,100570.13
2022-08-20T19:29:15.251Z,100574.53
2022-08-20T19:31:42.539Z,100568.53
2022-08-20T19:34:20.259Z,100579.69
2022-08-20T19:37:35.571Z,100579.69
2022-08-20T19:39:58.349Z,100585.28
2022-08-20T19:42:33.388Z,100586.13
2022-08-20T19:45:07.729Z,100590.97
2022-08-20T19:47:40.932Z,100582.97
2022-08-20T19:50:39.061Z,100580.19
2022-08-20T19:53:30.778Z,100584.56
2022-08-20T19:56:04.042Z,100578.53
2022-08-20T19:58:32.690Z,100588.53
2022-08-20T20:01:03.100Z,100590.09
2022-08-20T20:03:33.913Z,100580.50
2022-08-20T20:06:16.615Z,100589.69
2022-08-20T20:09:04.164Z,100588.88
2022-08-20T20:11:37.516Z,100592.09
2022-08-20T20:14:07.874Z,100606.09
2022-08-20T20:16:36.426Z,100590.09
2022-08-20T20:19:25.233Z,100598.03
2022-08-20T20:22:05.913Z,100607.63
2022-08-20T20:24:45.109Z,100601.22
2022-08-20T20:27:24.403Z,100608.78
2022-08-20T20:29:59.181Z,100613.19
2022-08-20T20:32:26.721Z,100608.78
2022-08-20T20:34:58.335Z,100617.16
2022-08-20T20:37:49.813Z,100613.16
2022-08-20T20:40:20.621Z,100617.16
2022-08-20T20:42:59.160Z,100620.31
2022-08-20T20:45:32.784Z,100618.34
2022-08-20T20:47:59.719Z,100621.94
2022-08-20T20:50:34.666Z,100622.31
2022-08-20T20:53:01.860Z,100620.66
2022-08-20T20:55:34.623Z,100627.44
2022-08-20T20:58:02.724Z,100617.44
2022-08-20T21:00:34.142Z,100617.88
2022-08-20T21:03:02.616Z,100621.44
2022-08-20T21:05:30.865Z,100629.03
2022-08-20T21:08:03.909Z,100621.03
2022-08-20T21:10:33.162Z,100628.25
2022-08-20T21:13:00.998Z,100623.03
2022-08-20T21:15:28.194Z,100627.41
2022-08-20T21:17:59.384Z,100627.78
2022-08-20T21:20:26.649Z,100637.31
2022-08-20T21:22:53.860Z,100630.06
2022-08-20T21:25:21.128Z,100636.84
2022-08-20T21:27:50.476Z,100636.06
2022-08-20T21:30:19.047Z,100635.28
2022-08-20T21:32:46.070Z,100642.88
2022-08-20T21:35:13.153Z,100649.63
2022-08-20T21:37:39.896Z,100647.56
2022-08-20T21:40:09.489Z,100647.13
2022-08-20T21:42:39.987Z,100643.50
2022-08-20T21:45:10.031Z,100654.25
2022-08-20T21:47:36.768Z,100659.03
2022-08-20T21:50:05.009Z,100656.63
2022-08-20T21:52:31.963Z,100662.59
2022-08-20T21:55:02.299Z,100659.84
2022-08-20T21:57:33.172Z,100657.47
2022-08-20T22:00:03.474Z,100652.34
2022-08-20T22:02:30.521Z,100662.28
2022-08-20T22:04:57.304Z,100657.47
2022-08-20T22:07:24.205Z,100665.41
2022-08-20T22:09:51.111Z,100661.34
2022-08-20T22:12:20.630Z,100664.53
2022-08-20T22:14:48.080Z,100670.94
2022-08-20T22:17:15.562Z,100672.16
2022-08-20T22:19:42.441Z,100679.28
2022-08-20T22:22:11.000Z,100675.25
2022-08-20T22:24:38.283Z,100674.84
2022-08-20T22:27:06.810Z,100669.28
2022-08-20T22:29:34.741Z,100672.44
2022-08-20T22:32:02.129Z,100670.84
2022-08-20T22:34:31.394Z,100673.97
2022-08-20T22:36:59.645Z,100671.56
2022-08-20T22:39:27.269Z,100672.31
2022-08-20T22:41:54.259Z,100677.09
2022-08-20T22:44:21.220Z,100674.97
2022-08-20T22:46:52.615Z,100674.44
2022-08-20T22:49:27.047Z,100687.16
2022-08-20T22:51:54.262Z,100672.31
2022-08-20T22:54:24.647Z,100671.88
2022-08-20T22:56:53.604Z,100675.84
2022-08-20T22:59:21.496Z,100674.97
2022-08-20T23:01:49.984Z,100668.47
2022-08-20T23:04:32.730Z,100677.13
2022-08-20T23:07:00.960Z,100671.06
2022-08-20T23:09:28.375Z,100670.63
2022-08-20T23:11:59.630Z,100673.44
2022-08-20T23:14:27.159Z,100674.19
2022-08-20T23:17:03.018Z,100678.47
2022-08-20T23:19:30.281Z,100685.22
2022-08-20T23:21:57.151Z,100676.84
2022-08-20T23:24:23.973Z,100680.72
2022-08-20T23:26:52.774Z,100671.13
2022-08-20T23:29:22.547Z,100679.06
2022-08-20T23:31:54.336Z,100691.28
2022-08-20T23:34:22.485Z,100693.31
2022-08-20T23:36:50.586Z,100690.09
2022-08-20T23:39:17.595Z,100686.81
2022-08-20T23:41:47.559Z,100691.22
2022-08-20T23:44:26.243Z,100693.94
2022-08-20T23:47:00.632Z,100687.53
2022-08-20T23:49:28.090Z,100685.13
2022-08-20T23:51:57.793Z,100687.88
2022-08-20T23:54:24.586Z,100693.75
2022-08-20T23:56:51.433Z,100692.16
2022-08-20T23:59:24.214Z,100698.88
